createdAt,value
2022-11-22T00:01:15.586Z,97155.81
2022-11-22T00:03:22.641Z,97161.50
2022-11-22T00:05:27.951Z,97155.13
2022-11-22T00:07:33.846Z,97156.63
2022-11-22T00:09:42.870Z,97161.66
2022-11-22T00:11:48.627Z,97158.03
2022-11-22T00:13:53.958Z,97162.25
2022-11-22T00:16:05.568Z,97152.44
2022-11-22T00:18:11.027Z,97157.47
2022-11-22T00:20:18.005Z,97149.50
2022-11-22T00:22:24.301Z,97150.06
2022-11-22T00:24:29.670Z,97154.19
2022-11-22T00:26:37.830Z,97152.25
2022-11-22T00:28:44.572Z,97160.78
2022-11-22T00:30:49.990Z,97159.78
2022-11-22T00:32:55.412Z,97163.91
2022-11-22T00:35:03.740Z,97159.78
2022-11-22T00:37:09.355Z,97167.19
2022-11-22T00:39:14.745Z,97173.19
2022-11-22T00:41:21.137Z,97178.41
2022-11-22T00:43:29.678Z,97178.41
2022-11-22T00:45:35.110Z,97186.13
2022-11-22T00:47:41.622Z,97173.78
2022-11-22T00:49:47.038Z,97186.78
2022-11-22T00:51:52.705Z,97183.09
2022-11-22T00:53:58.916Z,97182.09
2022-11-22T00:56:04.301Z,97186.28
2022-11-22T00:58:09.717Z,97181.06
2022-11-22T01:00:20.577Z,97176.78
2022-11-22T01:02:25.967Z,97184.59
2022-11-22T01:04:31.599Z,97182.94
2022-11-22T01:06:37.844Z,97175.88
2022-11-22T01:08:43.362Z,97180.31
2022-11-22T01:10:48.804Z,97168.97
2022-11-22T01:12:55.108Z,97172.34
2022-11-22T01:15:00.656Z,97158.56
2022-11-22T01:17:10.705Z,97163.78
2022-11-22T01:19:17.658Z,97163.94
2022-11-22T01:21:23.073Z,97155.50
2022-11-22T01:23:28.681Z,97157.41
2022-11-22T01:25:34.930Z,97166.16
2022-11-22T01:27:41.190Z,97152.56
2022-11-22T01:29:46.595Z,97157.75
2022-11-22T01:31:52.872Z,97154.41
2022-11-22T01:34:02.960Z,97146.72
2022-11-22T01:36:09.009Z,97156.25
2022-11-22T01:38:15.594Z,97152.75
2022-11-22T01:40:21.214Z,97156.16
2022-11-22T01:42:26.844Z,97140.41
2022-11-22T01:44:36.710Z,97156.59
2022-11-22T01:46:43.212Z,97145.56
2022-11-22T01:49:04.085Z,97139.69
2022-11-22T01:51:24.112Z,97141.53
2022-11-22T01:53:40.112Z,97095.34
2022-11-22T01:55:47.587Z,97139.69
2022-11-22T01:57:54.338Z,97139.84
2022-11-22T02:00:08.348Z,97143.38
2022-11-22T02:02:21.020Z,97136.50
2022-11-22T02:04:35.128Z,97131.47
2022-11-22T02:06:55.525Z,97130.72
2022-11-22T02:09:10.958Z,97128.38
2022-11-22T02:11:17.214Z,97126.78
2022-11-22T02:13:27.696Z,97128.63
2022-11-22T02:15:33.694Z,97125.28
2022-11-22T02:17:39.957Z,97126.22
2022-11-22T02:19:53.590Z,97128.28
2022-11-22T02:22:11.778Z,97132.84
2022-11-22T02:24:29.696Z,97131.31
2022-11-22T02:26:38.989Z,97125.53
2022-11-22T02:28:44.658Z,97124.78
2022-11-22T02:30:50.428Z,97116.25
2022-11-22T02:32:56.865Z,97116.25
2022-11-22T02:35:03.825Z,97106.75
2022-11-22T02:37:09.317Z,97107.66
2022-11-22T02:39:23.046Z,97110.53
2022-11-22T02:41:28.625Z,97121.91
2022-11-22T02:43:42.933Z,97091.75
2022-11-22T02:45:49.575Z,97120.06
2022-11-22T02:47:54.924Z,97105.34
2022-11-22T02:50:00.574Z,97111.69
2022-11-22T02:52:09.060Z,97116.88
2022-11-22T02:54:14.513Z,97117.03
2022-11-22T02:56:20.907Z,97106.84
2022-11-22T02:58:27.206Z,97105.16
2022-11-22T03:00:36.016Z,97103.47
2022-11-22T03:02:41.590Z,97104.41
2022-11-22T03:04:47.847Z,97102.88
2022-11-22T03:06:53.984Z,97099.69
2022-11-22T03:09:00.484Z,97108.50
2022-11-22T03:11:08.852Z,97109.50
2022-11-22T03:13:14.279Z,97099.63
2022-11-22T03:15:19.924Z,97121.88
2022-11-22T03:17:29.501Z,97114.19
2022-11-22T03:19:35.311Z,97110.00
2022-11-22T03:21:42.254Z,97106.63
2022-11-22T03:23:48.449Z,97103.28
2022-11-22T03:25:53.897Z,97096.44
2022-11-22T03:28:00.777Z,97100.84
2022-11-22T03:30:10.065Z,97093.25
2022-11-22T03:32:15.656Z,97105.63
2022-11-22T03:34:23.788Z,97096.31
2022-11-22T03:36:30.045Z,97094.00
2022-11-22T03:38:38.420Z,97096.00
2022-11-22T03:40:43.817Z,97098.16
2022-11-22T03:42:50.213Z,97106.53
2022-11-22T03:44:55.957Z,97105.84
2022-11-22T03:47:01.340Z,97099.19
2022-11-22T03:49:08.509Z,97100.03
2022-11-22T03:51:16.941Z,97095.75
2022-11-22T03:53:23.345Z,97092.41
2022-11-22T03:55:29.642Z,97096.84
2022-11-22T03:57:35.082Z,97100.44
2022-11-22T03:59:40.634Z,97099.59
2022-11-22T04:01:47.170Z,97096.25
2022-11-22T04:03:53.251Z,97105.88
2022-11-22T04:05:59.114Z,97103.41
2022-11-22T04:08:10.104Z,97094.31
2022-11-22T04:10:19.344Z,97099.13
2022-11-22T04:12:27.610Z,97089.19
2022-11-22T04:14:50.414Z,97097.09
2022-11-22T04:16:56.298Z,97094.84
2022-11-22T04:19:03.337Z,97077.22
2022-11-22T04:21:25.379Z,97087.34
2022-11-22T04:23:34.422Z,97084.84
2022-11-22T04:25:39.861Z,97079.72
2022-11-22T04:27:46.079Z,97084.91
2022-11-22T04:29:51.490Z,97088.56
2022-11-22T04:32:12.574Z,97092.06
2022-11-22T04:34:19.018Z,97083.25
2022-11-22T04:36:24.675Z,97086.59
2022-11-22T04:38:33.127Z,97083.38
2022-11-22T04:40:40.227Z,97083.53
2022-11-22T04:43:03.567Z,97081.69
2022-11-22T04:45:11.452Z,97084.28
2022-11-22T04:47:44.992Z,97080.03
2022-11-22T04:49:54.306Z,97075.53
2022-11-22T04:52:15.149Z,97064.50
2022-11-22T04:54:24.264Z,97071.81
2022-11-22T04:56:30.715Z,97076.22
2022-11-22T04:58:36.438Z,97081.19
2022-11-22T05:00:43.891Z,96975.59
2022-11-22T05:02:49.314Z,97078.81
2022-11-22T05:04:54.712Z,97081.41
2022-11-22T05:07:01.209Z,97078.72
2022-11-22T05:09:08.718Z,97076.09
2022-11-22T05:11:16.912Z,97073.41
2022-11-22T05:13:26.752Z,97075.09
2022-11-22T05:15:33.624Z,97072.41
2022-11-22T05:17:38.988Z,97075.84
2022-11-22T05:19:49.181Z,97070.72
2022-11-22T05:21:55.264Z,97058.25
2022-11-22T05:23:58.018Z,97063.34
2022-11-22T05:26:06.679Z,97074.25
2022-11-22T05:28:15.101Z,97054.94
2022-11-22T05:30:20.784Z,97072.72
2022-11-22T05:32:27.040Z,97066.91
2022-11-22T05:34:32.461Z,97071.47
2022-11-22T05:36:38.782Z,97071.63
2022-11-22T05:38:45.309Z,97075.16
2022-11-22T05:40:50.690Z,97069.97
2022-11-22T05:42:56.943Z,97083.75
2022-11-22T05:45:07.147Z,97063.25
2022-11-22T05:47:13.383Z,97076.91
2022-11-22T05:49:18.857Z,97079.63
2022-11-22T05:51:34.133Z,97077.13
2022-11-22T05:53:42.874Z,97082.31
2022-11-22T05:55:48.323Z,97077.88
2022-11-22T05:57:54.599Z,97082.59
2022-11-22T06:00:00.149Z,97092.94
2022-11-22T06:02:20.136Z,97088.84
2022-11-22T06:04:26.499Z,97085.41
2022-11-22T06:06:32.347Z,97091.44
2022-11-22T06:08:41.213Z,97091.56
2022-11-22T06:10:47.441Z,97095.06
2022-11-22T06:12:59.573Z,97095.06
2022-11-22T06:15:06.631Z,97097.66
2022-11-22T06:17:13.071Z,97092.47
2022-11-22T06:19:21.221Z,97094.22
2022-11-22T06:21:29.509Z,97098.59
2022-11-22T06:23:36.857Z,97087.59
2022-11-22T06:25:42.195Z,97095.06
2022-11-22T06:27:50.614Z,97091.72
2022-11-22T06:29:56.902Z,97099.47
2022-11-22T06:32:04.265Z,97102.16
2022-11-22T06:34:10.154Z,97093.81
2022-11-22T06:36:22.080Z,97102.16
2022-11-22T06:38:27.444Z,97111.59
2022-11-22T06:40:32.990Z,97112.44
2022-11-22T06:42:39.244Z,97115.88
2022-11-22T06:44:44.660Z,97115.91
2022-11-22T06:46:50.518Z,97121.81
2022-11-22T06:48:57.224Z,97117.34
2022-11-22T06:51:03.686Z,97119.78
2022-11-22T06:53:32.368Z,97125.72
2022-11-22T06:55:58.207Z,97123.91
2022-11-22T06:58:03.660Z,97126.47
2022-11-22T07:00:11.536Z,97128.94
2022-11-22T07:02:18.282Z,97125.41
2022-11-22T07:04:23.866Z,97133.28
2022-11-22T07:06:32.486Z,97123.63
2022-11-22T07:08:42.028Z,97011.19
2022-11-22T07:10:47.474Z,97127.72
2022-11-22T07:12:53.158Z,97126.97
2022-11-22T07:14:59.437Z,97118.72
2022-11-22T07:17:06.753Z,97132.28
2022-11-22T07:19:14.058Z,97127.81
2022-11-22T07:21:24.378Z,97130.31
2022-11-22T07:23:29.773Z,97126.69
2022-11-22T07:25:38.196Z,97133.38
2022-11-22T07:27:44.469Z,97137.50
2022-11-22T07:29:49.909Z,97140.69
2022-11-22T07:31:55.310Z,97138.91
2022-11-22T07:34:03.618Z,97131.19
2022-11-22T07:36:13.258Z,97141.16
2022-11-22T07:38:18.984Z,97152.38
2022-11-22T07:40:25.356Z,97144.47
2022-11-22T07:42:33.599Z,97143.38
2022-11-22T07:44:39.405Z,97135.41
2022-11-22T07:46:45.732Z,97136.09
2022-11-22T07:48:52.014Z,97137.63
2022-11-22T07:50:57.487Z,97135.69
2022-11-22T07:53:07.334Z,97134.66
2022-11-22T07:55:14.408Z,97141.38
2022-11-22T07:57:20.291Z,97134.53
2022-11-22T07:59:29.685Z,97129.19
2022-11-22T08:01:35.642Z,97130.72
2022-11-22T08:03:42.188Z,97137.59
2022-11-22T08:05:48.476Z,97137.41
2022-11-22T08:07:56.238Z,97134.22
2022-11-22T08:10:04.464Z,97140.78
2022-11-22T08:12:10.852Z,97133.63
2022-11-22T08:14:16.351Z,97141.31
2022-11-22T08:16:24.543Z,97139.47
2022-11-22T08:18:30.899Z,97134.06
2022-11-22T08:20:36.526Z,97135.56
2022-11-22T08:22:43.935Z,97133.59
2022-11-22T08:24:50.132Z,97132.34
2022-11-22T08:26:56.005Z,97125.34
2022-11-22T08:29:03.785Z,97131.13
2022-11-22T08:31:13.839Z,97127.44
2022-11-22T08:33:22.896Z,97129.78
2022-11-22T08:35:28.261Z,97129.03
2022-11-22T08:37:34.621Z,97126.19
2022-11-22T08:39:40.432Z,97126.72
2022-11-22T08:41:45.956Z,97113.81
2022-11-22T08:43:53.285Z,97123.72
2022-11-22T08:46:03.537Z,97115.84
2022-11-22T08:48:09.698Z,97121.72
2022-11-22T08:50:20.671Z,97124.16
2022-11-22T08:52:26.440Z,97118.03
2022-11-22T08:54:36.303Z,97123.75
2022-11-22T08:56:44.447Z,97120.91
2022-11-22T08:58:50.925Z,97120.75
2022-11-22T09:00:56.618Z,97120.44
2022-11-22T09:03:03.716Z,97115.66
2022-11-22T09:05:10.037Z,97117.06
2022-11-22T09:09:45.294Z,97070.28
2022-11-22T09:11:50.982Z,97117.81
2022-11-22T09:13:56.427Z,97114.03
2022-11-22T09:16:06.194Z,97110.25
2022-11-22T09:18:11.597Z,97112.53
2022-11-22T09:20:17.169Z,97107.91
2022-11-22T09:22:28.580Z,97112.75
2022-11-22T09:24:34.165Z,97102.84
2022-11-22T09:26:39.587Z,97105.09
2022-11-22T09:28:46.272Z,97103.91
2022-11-22T09:30:51.606Z,97103.75
2022-11-22T09:32:57.087Z,97098.34
2022-11-22T09:35:03.492Z,97096.31
2022-11-22T09:37:09.247Z,97103.75
2022-11-22T09:39:17.527Z,97098.72
2022-11-22T09:41:59.250Z,97101.66
2022-11-22T09:44:24.912Z,97102.13
2022-11-22T09:46:47.555Z,97094.03
2022-11-22T09:49:31.151Z,97092.84
2022-11-22T09:51:47.301Z,97099.34
2022-11-22T09:54:03.965Z,97108.38
2022-11-22T09:56:19.774Z,97098.50
2022-11-22T09:58:34.929Z,97104.16
2022-11-22T10:00:41.263Z,97102.97
2022-11-22T10:03:00.636Z,97099.22
2022-11-22T10:05:24.795Z,97100.56
2022-11-22T10:07:40.618Z,97103.72
2022-11-22T10:10:00.419Z,97101.66
2022-11-22T10:12:26.226Z,97088.72
2022-11-22T10:14:50.860Z,97096.81
2022-11-22T10:17:07.028Z,97091.22
2022-11-22T10:19:25.503Z,97093.63
2022-11-22T10:21:31.527Z,97091.56
2022-11-22T10:23:38.158Z,97088.59
2022-11-22T10:25:52.999Z,97083.94
2022-11-22T10:28:20.211Z,97086.25
2022-11-22T10:30:25.769Z,97082.97
2022-11-22T10:32:43.970Z,97080.72
2022-11-22T10:35:23.777Z,97078.63
2022-11-22T10:37:47.792Z,97060.94
2022-11-22T10:40:13.099Z,97079.53
2022-11-22T10:43:10.689Z,97067.88
2022-11-22T10:45:31.145Z,97072.47
2022-11-22T10:48:00.553Z,97054.13
2022-11-22T10:50:23.211Z,97063.00
2022-11-22T10:52:48.054Z,97059.78
2022-11-22T10:55:12.597Z,97053.13
2022-11-22T10:57:32.915Z,97049.16
2022-11-22T11:00:06.396Z,97053.88
2022-11-22T11:02:51.101Z,97051.56
2022-11-22T11:05:03.284Z,97046.06
2022-11-22T11:07:18.240Z,97045.03
2022-11-22T11:12:07.578Z,97041.19
2022-11-22T11:14:33.225Z,97038.25
2022-11-22T11:16:42.857Z,97038.16
2022-11-22T11:19:04.035Z,97040.44
2022-11-22T11:21:12.756Z,97037.53
2022-11-22T11:23:19.545Z,97036.34
2022-11-22T11:25:35.214Z,97035.22
2022-11-22T11:27:46.579Z,97042.75
2022-11-22T11:30:05.014Z,97039.91
2022-11-22T11:32:20.016Z,97042.84
2022-11-22T11:34:32.668Z,97036.81
2022-11-22T11:36:42.158Z,97037.63
2022-11-22T11:38:58.348Z,97047.84
2022-11-22T11:41:31.787Z,97050.31
2022-11-22T11:43:45.702Z,97040.66
2022-11-22T11:45:53.267Z,97052.09
2022-11-22T11:47:59.018Z,97047.25
2022-11-22T11:50:23.800Z,97053.72
2022-11-22T11:52:32.230Z,97051.81
2022-11-22T11:54:47.171Z,97056.22
2022-11-22T11:56:55.959Z,97048.50
2022-11-22T11:59:09.672Z,97042.75
2022-11-22T12:01:21.691Z,97055.72
2022-11-22T12:03:29.170Z,97048.72
2022-11-22T12:05:38.420Z,97045.97
2022-11-22T12:07:46.862Z,97050.63
2022-11-22T12:09:55.571Z,97039.09
2022-11-22T12:12:26.847Z,97048.63
2022-11-22T12:14:55.891Z,97040.66
2022-11-22T12:17:10.759Z,97047.72
2022-11-22T12:19:30.936Z,97048.25
2022-11-22T12:21:57.800Z,97038.53
2022-11-22T12:24:42.755Z,97054.38
2022-11-22T12:26:40.351Z,97043.78
2022-11-22T12:28:46.915Z,97034.50
2022-11-22T12:31:03.556Z,97041.06
2022-11-22T12:33:24.036Z,96676.00
2022-11-22T12:35:37.940Z,97038.78
2022-11-22T12:37:57.450Z,97033.31
2022-11-22T12:40:18.096Z,96828.88
2022-11-22T12:42:32.699Z,97029.78
2022-11-22T12:44:47.885Z,97035.00
2022-11-22T12:47:04.028Z,97032.16
2022-11-22T12:49:21.333Z,97028.56
2022-11-22T12:51:40.164Z,97025.72
2022-11-22T12:53:52.375Z,97026.22
2022-11-22T12:56:11.271Z,97020.63
2022-11-22T12:58:30.861Z,97019.31
2022-11-22T13:00:47.380Z,97020.38
2022-11-22T13:03:06.553Z,97019.94
2022-11-22T13:05:23.476Z,97016.00
2022-11-22T13:07:50.653Z,97011.00
2022-11-22T13:10:12.165Z,97018.41
2022-11-22T13:12:28.694Z,97026.00
2022-11-22T13:14:41.393Z,97025.75
2022-11-22T13:16:47.961Z,97018.75
2022-11-22T13:19:03.559Z,97012.66
2022-11-22T13:21:42.067Z,96995.63
2022-11-22T13:24:20.230Z,97017.41
2022-11-22T13:26:45.904Z,97011.69
2022-11-22T13:28:54.689Z,97001.44
2022-11-22T13:31:22.602Z,97005.97
2022-11-22T13:33:30.349Z,97000.03
2022-11-22T13:35:38.864Z,96995.13
2022-11-22T13:37:49.262Z,96995.97
2022-11-22T13:39:56.870Z,97000.28
2022-11-22T13:42:12.358Z,96997.91
2022-11-22T13:44:42.459Z,96999.81
2022-11-22T13:47:03.488Z,96998.97
2022-11-22T13:49:19.348Z,97001.81
2022-11-22T13:51:56.953Z,96999.44
2022-11-22T13:54:56.570Z,96992.41
2022-11-22T13:57:07.433Z,96987.03
2022-11-22T13:59:21.376Z,96990.63
2022-11-22T14:02:00.478Z,96988.38
2022-11-22T14:04:32.163Z,96988.38
2022-11-22T14:06:38.568Z,96993.34
2022-11-22T14:08:44.231Z,96991.47
2022-11-22T14:11:17.656Z,96984.78
2022-11-22T14:13:47.888Z,96995.50
2022-11-22T14:16:36.651Z,96995.97
2022-11-22T14:19:06.869Z,96995.81
2022-11-22T14:21:26.581Z,97005.94
2022-11-22T14:23:53.633Z,96997.59
2022-11-22T14:26:19.816Z,97003.78
2022-11-22T14:29:12.081Z,97004.75
2022-11-22T14:31:28.585Z,97010.22
2022-11-22T14:33:34.061Z,97015.44
2022-11-22T14:35:42.134Z,97020.91
2022-11-22T14:38:01.216Z,97016.59
2022-11-22T14:40:33.741Z,97009.22
2022-11-22T14:43:00.971Z,97016.84
2022-11-22T14:45:23.589Z,97015.41
2022-11-22T14:47:33.648Z,97006.09
2022-11-22T14:49:49.027Z,97004.63
2022-11-22T14:52:00.766Z,97001.75
2022-11-22T14:54:24.673Z,97006.72
2022-11-22T14:56:37.226Z,96922.19
2022-11-22T14:59:06.531Z,97010.97
2022-11-22T15:02:15.633Z,97007.84
2022-11-22T15:09:19.371Z,97017.38
2022-11-22T15:09:23.878Z,97021.16
2022-11-22T15:11:04.612Z,97025.66
2022-11-22T15:13:46.981Z,97020.78
2022-11-22T15:57:39.167Z,97033.00
2022-11-22T15:59:52.310Z,97046.28
2022-11-22T16:02:03.194Z,97047.13
2022-11-22T16:04:23.581Z,97048.88
2022-11-22T16:06:33.811Z,97061.09
2022-11-22T16:08:42.368Z,97059.66
2022-11-22T16:10:54.496Z,97057.91
2022-11-22T16:13:00.279Z,97046.47
2022-11-22T16:15:36.436Z,97047.44
2022-11-22T16:17:59.468Z,96968.16
2022-11-22T16:20:36.909Z,97055.06
2022-11-22T16:22:43.187Z,97048.16
2022-11-22T16:24:51.363Z,97055.28
2022-11-22T16:27:00.563Z,97054.56
2022-11-22T16:29:32.431Z,97057.25
2022-11-22T16:31:38.196Z,97062.81
2022-11-22T16:33:44.369Z,97057.91
2022-11-22T16:35:56.914Z,97051.31
2022-11-22T16:38:03.452Z,97052.03
2022-11-22T16:40:14.897Z,97061.75
2022-11-22T16:42:21.497Z,97064.25
2022-11-22T16:44:27.285Z,97068.44
2022-11-22T16:46:32.904Z,97071.06
2022-11-22T16:48:39.136Z,97066.56
2022-11-22T16:50:45.163Z,97073.47
2022-11-22T16:52:52.760Z,97068.44
2022-11-22T16:54:58.954Z,97072.22
2022-11-22T16:57:14.415Z,97077.22
2022-11-22T16:59:19.851Z,97082.22
2022-11-22T17:01:31.170Z,97082.00
2022-11-22T17:03:42.181Z,97080.16
2022-11-22T17:05:48.299Z,97082.66
2022-11-22T17:07:54.719Z,97083.50
2022-11-22T17:10:00.336Z,97077.63
2022-11-22T17:12:23.522Z,97082.44
2022-11-22T17:14:30.203Z,97073.06
2022-11-22T17:16:35.831Z,97079.94
2022-11-22T17:18:42.672Z,97079.72
2022-11-22T17:20:49.503Z,97084.00
2022-11-22T17:22:55.015Z,97084.22
2022-11-22T17:25:00.617Z,97086.94
2022-11-22T17:27:15.304Z,97085.38
2022-11-22T17:29:49.935Z,97092.38
2022-11-22T17:31:51.153Z,97091.34
2022-11-22T17:34:00.551Z,97084.22
2022-11-22T17:36:08.306Z,97094.56
2022-11-22T17:38:15.320Z,97087.69
2022-11-22T17:40:21.784Z,97079.94
2022-11-22T17:42:29.961Z,97074.09
2022-11-22T17:44:35.340Z,97077.22
2022-11-22T17:46:41.650Z,97076.50
2022-11-22T17:48:47.280Z,97080.16
2022-11-22T17:50:52.658Z,97078.47
2022-11-22T17:52:58.940Z,97084.63
2022-11-22T17:55:06.326Z,97090.63
2022-11-22T17:57:13.634Z,97095.59
2022-11-22T17:59:22.934Z,97090.63
2022-11-22T18:01:28.501Z,97094.78
2022-11-22T18:03:34.299Z,97094.66
2022-11-22T18:05:40.620Z,97106.81
2022-11-22T18:07:46.556Z,97097.91
2022-11-22T18:09:52.338Z,97102.09
2022-11-22T18:11:58.595Z,97103.88
2022-11-22T18:14:04.049Z,97105.84
2022-11-22T18:16:18.310Z,97110.66
2022-11-22T18:18:54.490Z,97105.31
2022-11-22T18:20:51.420Z,97114.19
2022-11-22T18:22:56.892Z,97115.16
2022-11-22T18:25:05.293Z,97109.41
2022-11-22T18:27:10.681Z,97115.78
2022-11-22T18:29:41.163Z,97079.91
2022-11-22T18:31:52.043Z,97115.03
2022-11-22T18:33:58.541Z,97108.13
2022-11-22T18:36:49.410Z,97061.09
2022-11-22T18:38:35.089Z,97107.94
2022-11-22T18:40:40.596Z,97100.81
2022-11-22T18:42:46.319Z,97095.59
2022-11-22T18:44:52.575Z,97109.41
2022-11-22T18:47:00.712Z,97107.53
2022-11-22T18:49:08.093Z,97112.75
2022-11-22T18:51:14.351Z,97110.88
2022-11-22T18:53:19.934Z,97108.97
2022-11-22T18:55:25.318Z,97108.78
2022-11-22T18:57:31.593Z,97109.63
2022-11-22T18:59:36.989Z,97107.09
2022-11-22T19:01:43.357Z,97110.66
2022-11-22T19:03:52.674Z,97101.88
2022-11-22T19:05:58.348Z,97101.06
2022-11-22T19:08:03.731Z,97098.72
2022-11-22T19:10:12.673Z,97100.81
2022-11-22T19:12:18.584Z,97097.47
2022-11-22T19:14:23.918Z,97104.59
2022-11-22T19:16:30.784Z,97101.97
2022-11-22T19:18:42.780Z,97101.06
2022-11-22T19:20:55.571Z,97101.97
2022-11-22T19:23:03.691Z,97101.25
2022-11-22T19:25:11.345Z,97102.31
2022-11-22T19:27:17.308Z,97091.41
2022-11-22T19:29:23.983Z,97093.31
2022-11-22T19:31:31.828Z,97102.38
2022-11-22T19:33:37.269Z,97100.63
2022-11-22T19:35:43.878Z,97095.28
2022-11-22T19:37:52.582Z,97101.47
2022-11-22T19:39:57.942Z,97092.38
2022-11-22T19:42:04.239Z,97105.00
2022-11-22T19:44:09.847Z,97104.28
2022-11-22T19:46:16.685Z,97122.56
2022-11-22T19:48:23.046Z,97114.72
2022-11-22T19:50:28.461Z,97119.03
2022-11-22T19:52:34.750Z,97123.41
2022-11-22T19:54:43.931Z,97125.16
2022-11-22T19:56:49.594Z,97127.78
2022-11-22T19:58:57.556Z,97136.53
2022-11-22T20:01:09.167Z,97136.53
2022-11-22T20:03:16.461Z,97135.72
2022-11-22T20:05:22.338Z,97141.03
2022-11-22T20:07:28.641Z,97135.72
2022-11-22T20:09:34.109Z,97144.38
2022-11-22T20:11:45.635Z,97147.00
2022-11-22T20:13:53.884Z,97153.91
2022-11-22T20:16:00.053Z,97144.38
2022-11-22T20:18:08.703Z,97141.75
2022-11-22T20:20:15.128Z,97144.38
2022-11-22T20:22:20.612Z,97141.03
2022-11-22T20:24:27.721Z,97141.88
2022-11-22T20:26:36.575Z,97136.22
2022-11-22T20:28:47.697Z,97136.63
2022-11-22T20:30:53.066Z,97147.25
2022-11-22T20:33:00.005Z,97136.28
2022-11-22T20:35:08.320Z,97139.41
2022-11-22T20:37:13.726Z,97138.94
2022-11-22T20:39:19.971Z,97147.19
2022-11-22T20:41:29.397Z,97146.44
2022-11-22T20:43:36.548Z,97155.22
2022-11-22T20:45:46.116Z,97154.69
2022-11-22T20:47:51.516Z,97163.84
2022-11-22T20:49:56.870Z,97165.69
2022-11-22T20:52:03.131Z,97172.06
2022-11-22T20:54:09.742Z,97158.28
2022-11-22T20:56:16.608Z,97158.66
2022-11-22T20:58:23.074Z,97157.59
2022-11-22T21:00:28.542Z,97151.09
2022-11-22T21:02:37.151Z,97156.69
2022-11-22T21:04:43.393Z,97163.94
2022-11-22T21:06:49.629Z,97155.59
2022-11-22T21:08:55.286Z,97155.03
2022-11-22T21:11:10.102Z,97150.13
2022-11-22T21:13:15.702Z,97158.84
2022-11-22T21:15:21.228Z,97159.22
2022-11-22T21:17:45.567Z,97156.72
2022-11-22T21:19:55.576Z,97158.50
2022-11-22T21:22:03.385Z,97148.16
2022-11-22T21:24:11.232Z,97143.63
2022-11-22T21:26:16.651Z,97157.66
2022-11-22T21:28:22.330Z,97156.56
2022-11-22T21:30:28.547Z,97157.84
2022-11-22T21:32:34.928Z,97165.84
2022-11-22T21:34:40.668Z,97158.97
2022-11-22T21:36:50.032Z,97169.75
2022-11-22T21:38:56.484Z,97163.06
2022-11-22T21:41:32.255Z,97158.03
2022-11-22T21:43:33.552Z,97098.22
2022-11-22T21:45:38.931Z,97166.47
2022-11-22T21:47:44.311Z,97163.97
2022-11-22T21:49:51.464Z,97157.16
2022-11-22T21:51:59.819Z,97165.97
2022-11-22T21:54:08.318Z,97120.00
2022-11-22T21:56:14.574Z,97163.66
2022-11-22T21:58:20.337Z,97167.34
2022-11-22T22:00:26.753Z,97157.78
2022-11-22T22:02:34.395Z,97158.88
2022-11-22T22:04:39.978Z,97158.31
2022-11-22T22:06:46.379Z,97160.44
2022-11-22T22:08:55.821Z,97155.47
2022-11-22T22:11:04.130Z,97167.75
2022-11-22T22:13:11.228Z,97163.38
2022-11-22T22:15:18.646Z,97164.41
2022-11-22T22:17:26.803Z,97172.28
2022-11-22T22:19:33.007Z,97180.19
2022-11-22T22:21:39.786Z,97176.84
2022-11-22T22:23:46.843Z,97177.84
2022-11-22T22:25:59.704Z,97176.34
2022-11-22T22:28:07.504Z,97173.34
2022-11-22T22:30:16.121Z,97170.25
2022-11-22T22:32:21.528Z,97174.88
2022-11-22T22:34:27.951Z,97175.22
2022-11-22T22:36:33.350Z,97173.03
2022-11-22T22:38:39.858Z,97169.97
2022-11-22T22:40:46.487Z,97171.03
2022-11-22T22:42:54.662Z,97178.94
2022-11-22T22:45:00.271Z,97181.59
2022-11-22T22:47:08.558Z,97174.75
2022-11-22T22:49:14.027Z,97180.09
2022-11-22T22:51:26.232Z,97184.81
2022-11-22T22:53:38.173Z,97187.59
2022-11-22T22:55:43.664Z,97184.47
2022-11-22T22:57:49.029Z,97186.31
2022-11-22T22:59:58.773Z,97189.81
2022-11-22T23:02:04.802Z,97186.31
2022-11-22T23:04:10.844Z,97195.22
2022-11-22T23:06:17.088Z,97194.38
2022-11-22T23:08:22.422Z,97192.69
2022-11-22T23:10:28.060Z,97184.03
2022-11-22T23:12:34.397Z,97197.97
2022-11-22T23:14:40.262Z,97194.59
2022-11-22T23:16:58.564Z,97191.19
2022-11-22T23:19:06.977Z,97195.69
2022-11-22T23:21:16.913Z,97194.19
2022-11-22T23:23:22.361Z,97187.31
2022-11-22T23:25:28.819Z,97185.63
2022-11-22T23:27:34.215Z,97184.81
2022-11-22T23:29:39.620Z,97177.06
2022-11-22T23:31:54.953Z,97176.31
2022-11-22T23:34:03.942Z,97104.03
2022-11-22T23:36:13.394Z,97170.22
2022-11-22T23:38:19.609Z,97180.59
2022-11-22T23:40:25.056Z,97176.31
2022-11-22T23:42:30.798Z,97169.53
2022-11-22T23:44:37.034Z,97179.06
2022-11-22T23:46:43.701Z,97175.72
2022-11-22T23:48:57.635Z,97175.72
2022-11-22T23:51:06.736Z,97168.00
2022-11-22T23:53:12.479Z,97166.19
2022-11-22T23:55:18.300Z,97169.78
2022-11-22T23:57:24.996Z,97172.53
2022-11-22T23:59:30.878Z,97165.66
